sensor_id;sensor_type;location;lat;lon;timestamp;pressure;altitude;pressure_sealevel;temperature;humidity
41706;BME280;27385;51.096;17.190;2023-06-26T00:01:41;100382.15;;;15.70;78.16
41706;BME280;27385;51.096;17.190;2023-06-26T00:04:11;100380.05;;;15.66;78.36
41706;BME280;27385;51.096;17.190;2023-06-26T00:06:44;100379.52;;;15.62;78.50
41706;BME280;27385;51.096;17.190;2023-06-26T00:09:15;100378.24;;;15.57;78.56
41706;BME280;27385;51.096;17.190;2023-06-26T00:11:46;100373.48;;;15.55;78.73
41706;BME280;27385;51.096;17.190;2023-06-26T00:14:17;100373.27;;;15.52;78.69
41706;BME280;27385;51.096;17.190;2023-06-26T00:16:50;100374.81;;;15.49;78.79
41706;BME280;27385;51.096;17.190;2023-06-26T00:19:21;100373.64;;;15.48;79.09
41706;BME280;27385;51.096;17.190;2023-06-26T00:21:51;100378.29;;;15.46;79.31
41706;BME280;27385;51.096;17.190;2023-06-26T00:24:22;100378.58;;;15.44;79.68
41706;BME280;27385;51.096;17.190;2023-06-26T00:26:53;100375.48;;;15.41;79.79
41706;BME280;27385;51.096;17.190;2023-06-26T00:29:24;100372.20;;;15.39;79.78
41706;BME280;27385;51.096;17.190;2023-06-26T00:31:55;100370.62;;;15.37;79.88
41706;BME280;27385;51.096;17.190;2023-06-26T00:34:26;100367.60;;;15.35;80.12
41706;BME280;27385;51.096;17.190;2023-06-26T00:36:57;100368.20;;;15.33;80.22
41706;BME280;27385;51.096;17.190;2023-06-26T00:39:28;100370.77;;;15.31;80.51
41706;BME280;27385;51.096;17.190;2023-06-26T00:41:59;100369.64;;;15.29;80.59
41706;BME280;27385;51.096;17.190;2023-06-26T00:44:30;100363.29;;;15.26;80.58
41706;BME280;27385;51.096;17.190;2023-06-26T00:47:01;100360.72;;;15.24;80.56
41706;BME280;27385;51.096;17.190;2023-06-26T00:49:32;100357.48;;;15.22;80.37
41706;BME280;27385;51.096;17.190;2023-06-26T00:52:04;100359.59;;;15.19;80.53
41706;BME280;27385;51.096;17.190;2023-06-26T00:54:35;100353.91;;;15.16;80.58
41706;BME280;27385;51.096;17.190;2023-06-26T00:57:06;100354.77;;;15.13;80.81
41706;BME280;27385;51.096;17.190;2023-06-26T00:59:37;100356.30;;;15.09;80.89
41706;BME280;27385;51.096;17.190;2023-06-26T01:02:08;100351.84;;;15.07;81.16
41706;BME280;27385;51.096;17.190;2023-06-26T01:04:39;100352.19;;;15.05;81.18
41706;BME280;27385;51.096;17.190;2023-06-26T01:07:16;100353.52;;;15.04;81.08
41706;BME280;27385;51.096;17.190;2023-06-26T01:09:49;100350.96;;;15.02;81.15
41706;BME280;27385;51.096;17.190;2023-06-26T01:12:20;100351.26;;;14.99;81.30
41706;BME280;27385;51.096;17.190;2023-06-26T01:14:52;100348.18;;;14.96;81.52
41706;BME280;27385;51.096;17.190;2023-06-26T01:17:23;100345.97;;;14.93;81.62
41706;BME280;27385;51.096;17.190;2023-06-26T01:19:54;100347.65;;;14.91;81.58
41706;BME280;27385;51.096;17.190;2023-06-26T01:22:30;100341.66;;;14.88;81.90
41706;BME280;27385;51.096;17.190;2023-06-26T01:25:11;100345.28;;;14.84;81.96
41706;BME280;27385;51.096;17.190;2023-06-26T01:27:50;100341.75;;;14.82;82.06
41706;BME280;27385;51.096;17.190;2023-06-26T01:30:21;100343.33;;;14.80;82.18
41706;BME280;27385;51.096;17.190;2023-06-26T01:32:53;100340.10;;;14.78;82.07
41706;BME280;27385;51.096;17.190;2023-06-26T01:35:23;100343.52;;;14.75;82.17
41706;BME280;27385;51.096;17.190;2023-06-26T01:37:55;100344.23;;;14.73;82.32
41706;BME280;27385;51.096;17.190;2023-06-26T01:40:46;100343.04;;;14.71;82.39
41706;BME280;27385;51.096;17.190;2023-06-26T01:43:24;100342.81;;;14.68;82.44
41706;BME280;27385;51.096;17.190;2023-06-26T01:46:01;100336.43;;;14.66;82.48
41706;BME280;27385;51.096;17.190;2023-06-26T01:48:44;100339.99;;;14.64;82.77
41706;BME280;27385;51.096;17.190;2023-06-26T01:51:18;100336.36;;;14.62;82.75
41706;BME280;27385;51.096;17.190;2023-06-26T01:53:54;100335.39;;;14.60;82.93
41706;BME280;27385;51.096;17.190;2023-06-26T01:56:29;100332.93;;;14.57;82.86
41706;BME280;27385;51.096;17.190;2023-06-26T01:59:01;100329.27;;;14.54;82.88
41706;BME280;27385;51.096;17.190;2023-06-26T02:01:35;100322.92;;;14.50;82.87
41706;BME280;27385;51.096;17.190;2023-06-26T02:04:06;100324.50;;;14.48;83.01
41706;BME280;27385;51.096;17.190;2023-06-26T02:06:37;100322.34;;;14.46;83.10
41706;BME280;27385;51.096;17.190;2023-06-26T02:09:08;100318.05;;;14.44;83.08
41706;BME280;27385;51.096;17.190;2023-06-26T02:11:39;100318.86;;;14.43;83.15
41706;BME280;27385;51.096;17.190;2023-06-26T02:14:10;100316.41;;;14.42;83.36
41706;BME280;27385;51.096;17.190;2023-06-26T02:16:41;100317.73;;;14.41;83.46
41706;BME280;27385;51.096;17.190;2023-06-26T02:19:12;100318.65;;;14.41;83.59
41706;BME280;27385;51.096;17.190;2023-06-26T02:21:51;100318.85;;;14.40;83.70
41706;BME280;27385;51.096;17.190;2023-06-26T02:24:21;100325.85;;;14.40;83.93
41706;BME280;27385;51.096;17.190;2023-06-26T02:26:52;100322.93;;;14.39;84.10
41706;BME280;27385;51.096;17.190;2023-06-26T02:29:23;100324.00;;;14.39;84.28
41706;BME280;27385;51.096;17.190;2023-06-26T02:31:54;100326.39;;;14.37;84.11
41706;BME280;27385;51.096;17.190;2023-06-26T02:34:25;100325.02;;;14.36;84.18
41706;BME280;27385;51.096;17.190;2023-06-26T02:36:56;100328.87;;;14.34;84.31
41706;BME280;27385;51.096;17.190;2023-06-26T02:39:28;100329.64;;;14.32;84.40
41706;BME280;27385;51.096;17.190;2023-06-26T02:41:58;100326.91;;;14.30;84.33
41706;BME280;27385;51.096;17.190;2023-06-26T02:44:29;100331.13;;;14.28;84.41
41706;BME280;27385;51.096;17.190;2023-06-26T02:47:00;100331.61;;;14.25;84.25
41706;BME280;27385;51.096;17.190;2023-06-26T02:49:31;100327.61;;;14.23;84.50
41706;BME280;27385;51.096;17.190;2023-06-26T02:52:02;100330.83;;;14.20;84.46
41706;BME280;27385;51.096;17.190;2023-06-26T02:54:33;100332.95;;;14.19;84.42
41706;BME280;27385;51.096;17.190;2023-06-26T02:57:04;100329.34;;;14.18;84.64
41706;BME280;27385;51.096;17.190;2023-06-26T02:59:36;100333.81;;;14.17;84.82
41706;BME280;27385;51.096;17.190;2023-06-26T03:02:09;100332.69;;;14.18;85.01
41706;BME280;27385;51.096;17.190;2023-06-26T03:04:39;100331.15;;;14.16;85.07
41706;BME280;27385;51.096;17.190;2023-06-26T03:07:12;100330.38;;;14.16;84.98
41706;BME280;27385;51.096;17.190;2023-06-26T03:09:43;100322.81;;;14.14;85.22
41706;BME280;27385;51.096;17.190;2023-06-26T03:12:14;100327.34;;;14.12;85.20
41706;BME280;27385;51.096;17.190;2023-06-26T03:14:45;100326.21;;;14.10;85.49
41706;BME280;27385;51.096;17.190;2023-06-26T03:17:16;100326.86;;;14.07;85.58
41706;BME280;27385;51.096;17.190;2023-06-26T03:19:47;100325.88;;;14.05;85.70
41706;BME280;27385;51.096;17.190;2023-06-26T03:22:17;100321.80;;;14.04;85.89
41706;BME280;27385;51.096;17.190;2023-06-26T03:24:49;100319.84;;;14.03;86.02
41706;BME280;27385;51.096;17.190;2023-06-26T03:27:20;100320.45;;;14.03;86.28
41706;BME280;27385;51.096;17.190;2023-06-26T03:29:51;100323.21;;;14.03;86.46
41706;BME280;27385;51.096;17.190;2023-06-26T03:32:22;100322.20;;;14.04;86.57
41706;BME280;27385;51.096;17.190;2023-06-26T03:34:53;100319.34;;;14.05;86.77
41706;BME280;27385;51.096;17.190;2023-06-26T03:37:24;100318.02;;;14.06;86.92
41706;BME280;27385;51.096;17.190;2023-06-26T03:39:55;100316.15;;;14.09;86.78
41706;BME280;27385;51.096;17.190;2023-06-26T03:42:26;100318.67;;;14.13;87.05
41706;BME280;27385;51.096;17.190;2023-06-26T03:44:57;100314.89;;;14.15;87.28
41706;BME280;27385;51.096;17.190;2023-06-26T03:47:28;100312.73;;;14.18;87.38
41706;BME280;27385;51.096;17.190;2023-06-26T03:49:59;100314.08;;;14.24;87.64
41706;BME280;27385;51.096;17.190;2023-06-26T03:52:30;100312.29;;;14.29;87.81
41706;BME280;27385;51.096;17.190;2023-06-26T03:55:01;100312.55;;;14.35;88.18
41706;BME280;27385;51.096;17.190;2023-06-26T03:57:32;100312.22;;;14.42;88.30
41706;BME280;27385;51.096;17.190;2023-06-26T04:00:04;100310.82;;;14.49;88.48
41706;BME280;27385;51.096;17.190;2023-06-26T04:02:37;100308.96;;;14.57;88.63
41706;BME280;27385;51.096;17.190;2023-06-26T04:05:09;100306.48;;;14.66;88.83
41706;BME280;27385;51.096;17.190;2023-06-26T04:07:40;100306.83;;;14.75;89.31
41706;BME280;27385;51.096;17.190;2023-06-26T04:10:11;100310.27;;;14.84;89.60
41706;BME280;27385;51.096;17.190;2023-06-26T04:12:42;100307.90;;;14.93;89.57
41706;BME280;27385;51.096;17.190;2023-06-26T04:15:14;100313.13;;;15.03;89.77
41706;BME280;27385;51.096;17.190;2023-06-26T04:17:45;100308.60;;;15.12;89.82
41706;BME280;27385;51.096;17.190;2023-06-26T04:20:16;100307.59;;;15.22;90.00
41706;BME280;27385;51.096;17.190;2023-06-26T04:22:47;100305.66;;;15.32;90.06
41706;BME280;27385;51.096;17.190;2023-06-26T04:25:19;100309.05;;;15.42;90.49
41706;BME280;27385;51.096;17.190;2023-06-26T04:27:50;100313.11;;;15.52;90.53
41706;BME280;27385;51.096;17.190;2023-06-26T04:30:21;100309.43;;;15.62;90.58
41706;BME280;27385;51.096;17.190;2023-06-26T04:32:51;100314.34;;;15.72;90.81
41706;BME280;27385;51.096;17.190;2023-06-26T04:35:22;100307.02;;;15.80;90.90
41706;BME280;27385;51.096;17.190;2023-06-26T04:37:53;100307.15;;;15.89;91.08
41706;BME280;27385;51.096;17.190;2023-06-26T04:40:24;100307.19;;;16.00;91.22
41706;BME280;27385;51.096;17.190;2023-06-26T04:42:55;100306.40;;;16.09;91.27
41706;BME280;27385;51.096;17.190;2023-06-26T04:45:26;100300.02;;;16.20;91.36
41706;BME280;27385;51.096;17.190;2023-06-26T04:47:57;100301.37;;;16.31;91.54
41706;BME280;27385;51.096;17.190;2023-06-26T04:50:31;100302.36;;;16.42;91.83
41706;BME280;27385;51.096;17.190;2023-06-26T04:53:03;100300.34;;;16.50;91.78
41706;BME280;27385;51.096;17.190;2023-06-26T04:55:34;100294.88;;;16.61;91.82
41706;BME280;27385;51.096;17.190;2023-06-26T04:58:06;100301.39;;;16.70;91.73
41706;BME280;27385;51.096;17.190;2023-06-26T05:00:36;100297.23;;;16.80;92.00
41706;BME280;27385;51.096;17.190;2023-06-26T05:03:07;100295.34;;;16.89;91.69
41706;BME280;27385;51.096;17.190;2023-06-26T05:05:38;100295.75;;;16.99;91.40
41706;BME280;27385;51.096;17.190;2023-06-26T05:08:20;100294.44;;;17.12;91.42
41706;BME280;27385;51.096;17.190;2023-06-26T05:10:51;100294.98;;;17.27;91.29
41706;BME280;27385;51.096;17.190;2023-06-26T05:13:27;100293.91;;;17.40;91.29
41706;BME280;27385;51.096;17.190;2023-06-26T05:15:58;100300.40;;;17.53;91.12
41706;BME280;27385;51.096;17.190;2023-06-26T05:18:29;100304.53;;;17.64;91.19
41706;BME280;27385;51.096;17.190;2023-06-26T05:21:02;100304.45;;;17.78;91.27
41706;BME280;27385;51.096;17.190;2023-06-26T05:23:34;100299.09;;;17.91;91.04
41706;BME280;27385;51.096;17.190;2023-06-26T05:26:06;100301.28;;;18.03;91.03
41706;BME280;27385;51.096;17.190;2023-06-26T05:28:38;100298.74;;;18.19;91.28
41706;BME280;27385;51.096;17.190;2023-06-26T05:31:09;100296.18;;;18.38;91.02
41706;BME280;27385;51.096;17.190;2023-06-26T05:33:43;100298.44;;;18.56;90.74
41706;BME280;27385;51.096;17.190;2023-06-26T05:36:16;100297.16;;;18.72;90.21
41706;BME280;27385;51.096;17.190;2023-06-26T05:38:47;100292.71;;;18.80;89.66
41706;BME280;27385;51.096;17.190;2023-06-26T05:41:20;100289.27;;;18.87;89.71
41706;BME280;27385;51.096;17.190;2023-06-26T05:43:51;100284.85;;;19.02;90.00
41706;BME280;27385;51.096;17.190;2023-06-26T05:46:23;100290.20;;;19.23;89.92
41706;BME280;27385;51.096;17.190;2023-06-26T05:48:54;100283.39;;;19.48;89.34
41706;BME280;27385;51.096;17.190;2023-06-26T05:51:26;100285.63;;;19.59;88.02
41706;BME280;27385;51.096;17.190;2023-06-26T05:53:58;100287.13;;;19.76;88.34
41706;BME280;27385;51.096;17.190;2023-06-26T05:56:29;100287.08;;;19.93;87.65
41706;BME280;27385;51.096;17.190;2023-06-26T05:59:01;100287.05;;;20.03;86.85
41706;BME280;27385;51.096;17.190;2023-06-26T06:01:33;100283.20;;;20.08;86.10
41706;BME280;27385;51.096;17.190;2023-06-26T06:04:05;100284.80;;;20.09;85.79
41706;BME280;27385;51.096;17.190;2023-06-26T06:06:36;100284.55;;;20.12;85.67
41706;BME280;27385;51.096;17.190;2023-06-26T06:09:06;100280.83;;;20.23;85.93
41706;BME280;27385;51.096;17.190;2023-06-26T06:11:37;100285.70;;;20.37;85.82
41706;BME280;27385;51.096;17.190;2023-06-26T06:14:08;100286.75;;;20.51;85.31
41706;BME280;27385;51.096;17.190;2023-06-26T06:16:39;100282.91;;;20.64;84.87
41706;BME280;27385;51.096;17.190;2023-06-26T06:19:11;100283.91;;;20.77;84.29
41706;BME280;27385;51.096;17.190;2023-06-26T06:21:43;100285.96;;;20.85;83.65
41706;BME280;27385;51.096;17.190;2023-06-26T06:24:14;100292.23;;;20.93;83.87
41706;BME280;27385;51.096;17.190;2023-06-26T06:26:44;100290.52;;;21.09;83.82
41706;BME280;27385;51.096;17.190;2023-06-26T06:29:18;100291.42;;;21.20;83.46
41706;BME280;27385;51.096;17.190;2023-06-26T06:31:50;100293.55;;;21.28;83.27
41706;BME280;27385;51.096;17.190;2023-06-26T06:34:22;100286.96;;;21.39;83.49
41706;BME280;27385;51.096;17.190;2023-06-26T06:36:54;100290.33;;;21.50;83.30
41706;BME280;27385;51.096;17.190;2023-06-26T06:39:25;100291.86;;;21.61;82.99
41706;BME280;27385;51.096;17.190;2023-06-26T06:41:57;100292.70;;;21.74;82.73
41706;BME280;27385;51.096;17.190;2023-06-26T06:44:28;100291.26;;;21.84;81.48
41706;BME280;27385;51.096;17.190;2023-06-26T06:47:00;100290.56;;;21.89;80.87
41706;BME280;27385;51.096;17.190;2023-06-26T06:49:31;100290.55;;;21.96;80.57
41706;BME280;27385;51.096;17.190;2023-06-26T06:52:02;100287.82;;;22.01;80.27
41706;BME280;27385;51.096;17.190;2023-06-26T06:54:33;100288.29;;;22.08;80.03
41706;BME280;27385;51.096;17.190;2023-06-26T06:57:24;100287.23;;;22.20;79.41
41706;BME280;27385;51.096;17.190;2023-06-26T06:59:55;100283.75;;;22.26;79.17
41706;BME280;27385;51.096;17.190;2023-06-26T07:02:26;100286.67;;;22.35;78.90
41706;BME280;27385;51.096;17.190;2023-06-26T07:04:57;100281.43;;;22.44;78.53
41706;BME280;27385;51.096;17.190;2023-06-26T07:07:30;100281.45;;;22.52;78.10
41706;BME280;27385;51.096;17.190;2023-06-26T07:10:03;100279.03;;;22.58;77.06
41706;BME280;27385;51.096;17.190;2023-06-26T07:12:34;100281.73;;;22.65;77.23
41706;BME280;27385;51.096;17.190;2023-06-26T07:15:07;100279.58;;;22.73;76.83
41706;BME280;27385;51.096;17.190;2023-06-26T07:17:38;100279.23;;;22.81;75.11
41706;BME280;27385;51.096;17.190;2023-06-26T07:20:10;100274.20;;;22.87;74.46
41706;BME280;27385;51.096;17.190;2023-06-26T07:22:45;100278.78;;;22.94;74.08
41706;BME280;27385;51.096;17.190;2023-06-26T07:25:16;100275.77;;;23.02;73.45
41706;BME280;27385;51.096;17.190;2023-06-26T07:27:47;100273.28;;;23.14;73.31
41706;BME280;27385;51.096;17.190;2023-06-26T07:30:18;100275.39;;;23.24;72.46
41706;BME280;27385;51.096;17.190;2023-06-26T07:32:49;100270.29;;;23.30;71.98
41706;BME280;27385;51.096;17.190;2023-06-26T07:35:20;100267.39;;;23.37;72.21
41706;BME280;27385;51.096;17.190;2023-06-26T07:37:51;100269.08;;;23.43;70.66
41706;BME280;27385;51.096;17.190;2023-06-26T07:40:22;100266.31;;;23.48;71.65
41706;BME280;27385;51.096;17.190;2023-06-26T07:42:53;100266.80;;;23.57;70.70
41706;BME280;27385;51.096;17.190;2023-06-26T07:45:24;100265.71;;;23.62;70.10
41706;BME280;27385;51.096;17.190;2023-06-26T07:47:55;100266.47;;;23.69;70.00
41706;BME280;27385;51.096;17.190;2023-06-26T07:50:26;100264.87;;;23.78;69.57
41706;BME280;27385;51.096;17.190;2023-06-26T07:52:57;100264.23;;;23.89;68.60
41706;BME280;27385;51.096;17.190;2023-06-26T07:55:28;100268.66;;;23.92;67.44
41706;BME280;27385;51.096;17.190;2023-06-26T07:57:59;100267.33;;;23.92;66.61
41706;BME280;27385;51.096;17.190;2023-06-26T08:00:30;100267.49;;;23.90;66.35
41706;BME280;27385;51.096;17.190;2023-06-26T08:03:01;100268.20;;;23.93;66.98
41706;BME280;27385;51.096;17.190;2023-06-26T08:05:32;100263.79;;;24.02;66.70
41706;BME280;27385;51.096;17.190;2023-06-26T08:08:04;100265.61;;;24.13;66.74
41706;BME280;27385;51.096;17.190;2023-06-26T08:10:36;100264.13;;;24.23;65.72
41706;BME280;27385;51.096;17.190;2023-06-26T08:13:07;100265.85;;;24.32;65.44
41706;BME280;27385;51.096;17.190;2023-06-26T08:15:38;100261.94;;;24.42;65.11
41706;BME280;27385;51.096;17.190;2023-06-26T08:18:10;100262.16;;;24.54;64.20
41706;BME280;27385;51.096;17.190;2023-06-26T08:20:42;100262.52;;;24.61;63.41
41706;BME280;27385;51.096;17.190;2023-06-26T08:23:14;100262.89;;;24.65;62.73
41706;BME280;27385;51.096;17.190;2023-06-26T08:25:46;100259.33;;;24.61;61.85
41706;BME280;27385;51.096;17.190;2023-06-26T08:28:19;100252.25;;;24.59;62.29
41706;BME280;27385;51.096;17.190;2023-06-26T08:30:51;100252.30;;;24.65;62.22
41706;BME280;27385;51.096;17.190;2023-06-26T08:33:23;100247.37;;;24.75;61.67
41706;BME280;27385;51.096;17.190;2023-06-26T08:35:54;100249.68;;;24.85;61.87
41706;BME280;27385;51.096;17.190;2023-06-26T08:38:26;100252.09;;;24.98;62.14
41706;BME280;27385;51.096;17.190;2023-06-26T08:40:57;100249.73;;;25.10;61.30
41706;BME280;27385;51.096;17.190;2023-06-26T08:43:28;100251.64;;;25.20;59.48
41706;BME280;27385;51.096;17.190;2023-06-26T08:46:00;100251.98;;;25.25;58.89
41706;BME280;27385;51.096;17.190;2023-06-26T08:48:34;100250.30;;;25.24;58.57
41706;BME280;27385;51.096;17.190;2023-06-26T08:51:09;100249.29;;;25.27;58.34
41706;BME280;27385;51.096;17.190;2023-06-26T08:53:46;100248.46;;;25.34;58.47
41706;BME280;27385;51.096;17.190;2023-06-26T08:56:20;100245.04;;;25.44;57.21
41706;BME280;27385;51.096;17.190;2023-06-26T08:58:53;100242.80;;;25.42;56.90
41706;BME280;27385;51.096;17.190;2023-06-26T09:01:25;100239.50;;;25.46;56.64
41706;BME280;27385;51.096;17.190;2023-06-26T09:03:56;100236.59;;;25.53;56.26
41706;BME280;27385;51.096;17.190;2023-06-26T09:06:27;100237.27;;;25.56;55.70
41706;BME280;27385;51.096;17.190;2023-06-26T09:08:58;100236.58;;;25.61;55.56
41706;BME280;27385;51.096;17.190;2023-06-26T09:11:29;100237.09;;;25.69;55.66
41706;BME280;27385;51.096;17.190;2023-06-26T09:14:00;100236.89;;;25.80;55.16
41706;BME280;27385;51.096;17.190;2023-06-26T09:16:40;100236.23;;;25.91;54.26
41706;BME280;27385;51.096;17.190;2023-06-26T09:19:13;100233.79;;;26.01;53.80
41706;BME280;27385;51.096;17.190;2023-06-26T09:21:45;100235.71;;;26.08;53.93
41706;BME280;27385;51.096;17.190;2023-06-26T09:24:19;100234.76;;;26.12;53.19
41706;BME280;27385;51.096;17.190;2023-06-26T09:26:50;100228.77;;;26.12;53.08
41706;BME280;27385;51.096;17.190;2023-06-26T09:29:22;100230.23;;;26.14;52.96
41706;BME280;27385;51.096;17.190;2023-06-26T09:31:54;100227.15;;;26.17;52.18
41706;BME280;27385;51.096;17.190;2023-06-26T09:34:33;100223.39;;;26.16;51.62
41706;BME280;27385;51.096;17.190;2023-06-26T09:37:04;100225.29;;;26.17;51.41
41706;BME280;27385;51.096;17.190;2023-06-26T09:39:36;100216.73;;;26.22;51.48
41706;BME280;27385;51.096;17.190;2023-06-26T09:42:07;100221.11;;;26.25;50.35
41706;BME280;27385;51.096;17.190;2023-06-26T09:44:44;100217.67;;;26.23;50.58
41706;BME280;27385;51.096;17.190;2023-06-26T09:47:18;100216.91;;;26.29;51.22
41706;BME280;27385;51.096;17.190;2023-06-26T09:49:49;100215.96;;;26.39;50.20
41706;BME280;27385;51.096;17.190;2023-06-26T09:52:21;100211.38;;;26.44;49.41
41706;BME280;27385;51.096;17.190;2023-06-26T09:55:10;100209.27;;;26.48;49.63
41706;BME280;27385;51.096;17.190;2023-06-26T09:57:41;100205.03;;;26.49;49.27
41706;BME280;27385;51.096;17.190;2023-06-26T10:00:15;100204.29;;;26.50;48.81
41706;BME280;27385;51.096;17.190;2023-06-26T10:02:46;100203.50;;;26.49;48.21
41706;BME280;27385;51.096;17.190;2023-06-26T10:05:17;100204.42;;;26.48;48.14
41706;BME280;27385;51.096;17.190;2023-06-26T10:07:48;100200.90;;;26.53;48.55
41706;BME280;27385;51.096;17.190;2023-06-26T10:10:20;100196.54;;;26.53;47.98
41706;BME280;27385;51.096;17.190;2023-06-26T10:13:00;100192.89;;;26.56;47.49
41706;BME280;27385;51.096;17.190;2023-06-26T10:15:34;100194.77;;;26.51;47.23
41706;BME280;27385;51.096;17.190;2023-06-26T10:18:06;100192.34;;;26.56;48.21
41706;BME280;27385;51.096;17.190;2023-06-26T10:20:38;100193.32;;;26.68;47.86
41706;BME280;27385;51.096;17.190;2023-06-26T10:23:10;100191.75;;;26.79;48.39
41706;BME280;27385;51.096;17.190;2023-06-26T10:25:44;100190.55;;;26.90;47.37
41706;BME280;27385;51.096;17.190;2023-06-26T10:28:16;100190.61;;;26.89;46.39
41706;BME280;27385;51.096;17.190;2023-06-26T10:30:50;100183.73;;;26.84;46.33
41706;BME280;27385;51.096;17.190;2023-06-26T10:33:21;100181.76;;;26.86;46.75
41706;BME280;27385;51.096;17.190;2023-06-26T10:36:15;100187.20;;;26.95;47.29
41706;BME280;27385;51.096;17.190;2023-06-26T10:53:21;100177.86;;;27.58;45.99
41706;BME280;27385;51.096;17.190;2023-06-26T10:55:59;100175.50;;;27.59;45.00
41706;BME280;27385;51.096;17.190;2023-06-26T10:58:33;100169.77;;;27.48;44.86
41706;BME280;27385;51.096;17.190;2023-06-26T11:01:19;100167.74;;;27.41;44.80
41706;BME280;27385;51.096;17.190;2023-06-26T11:04:04;100163.96;;;27.45;45.46
41706;BME280;27385;51.096;17.190;2023-06-26T11:06:36;100166.30;;;27.57;44.74
41706;BME280;27385;51.096;17.190;2023-06-26T11:09:11;100163.83;;;27.62;45.34
41706;BME280;27385;51.096;17.190;2023-06-26T11:11:59;100159.27;;;27.70;44.87
41706;BME280;27385;51.096;17.190;2023-06-26T11:14:34;100161.08;;;27.69;44.90
41706;BME280;27385;51.096;17.190;2023-06-26T11:17:06;100159.86;;;27.74;44.99
41706;BME280;27385;51.096;17.190;2023-06-26T11:19:37;100155.48;;;27.76;44.30
41706;BME280;27385;51.096;17.190;2023-06-26T11:22:13;100150.89;;;27.76;44.64
41706;BME280;27385;51.096;17.190;2023-06-26T11:24:45;100149.15;;;27.84;44.37
41706;BME280;27385;51.096;17.190;2023-06-26T11:27:17;100147.70;;;27.82;44.15
41706;BME280;27385;51.096;17.190;2023-06-26T11:29:50;100144.52;;;27.79;44.20
41706;BME280;27385;51.096;17.190;2023-06-26T11:32:21;100140.52;;;27.74;43.68
41706;BME280;27385;51.096;17.190;2023-06-26T11:34:52;100138.30;;;27.60;43.26
41706;BME280;27385;51.096;17.190;2023-06-26T11:37:23;100137.17;;;27.53;43.88
41706;BME280;27385;51.096;17.190;2023-06-26T11:39:55;100138.72;;;27.54;43.56
41706;BME280;27385;51.096;17.190;2023-06-26T11:42:26;100133.08;;;27.56;44.00
41706;BME280;27385;51.096;17.190;2023-06-26T11:44:58;100126.65;;;27.58;43.46
41706;BME280;27385;51.096;17.190;2023-06-26T11:47:33;100125.89;;;27.55;43.35
41706;BME280;27385;51.096;17.190;2023-06-26T11:50:05;100123.35;;;27.50;43.76
41706;BME280;27385;51.096;17.190;2023-06-26T11:52:37;100125.86;;;27.53;43.76
41706;BME280;27385;51.096;17.190;2023-06-26T11:55:09;100118.63;;;27.61;43.83
41706;BME280;27385;51.096;17.190;2023-06-26T11:57:40;100119.84;;;27.68;44.08
41706;BME280;27385;51.096;17.190;2023-06-26T12:00:15;100119.73;;;27.74;43.57
41706;BME280;27385;51.096;17.190;2023-06-26T12:02:47;100113.93;;;27.75;43.11
41706;BME280;27385;51.096;17.190;2023-06-26T12:05:19;100109.77;;;27.77;43.89
41706;BME280;27385;51.096;17.190;2023-06-26T12:07:51;100108.85;;;27.84;43.59
41706;BME280;27385;51.096;17.190;2023-06-26T12:10:25;100107.50;;;27.87;43.85
41706;BME280;27385;51.096;17.190;2023-06-26T12:12:56;100105.00;;;27.94;43.73
41706;BME280;27385;51.096;17.190;2023-06-26T12:15:29;100103.19;;;28.00;43.48
41706;BME280;27385;51.096;17.190;2023-06-26T12:18:01;100096.45;;;28.06;43.44
41706;BME280;27385;51.096;17.190;2023-06-26T12:20:41;100096.62;;;28.08;43.07
41706;BME280;27385;51.096;17.190;2023-06-26T12:23:15;100088.14;;;28.06;43.03
41706;BME280;27385;51.096;17.190;2023-06-26T12:25:46;100090.03;;;28.07;43.03
41706;BME280;27385;51.096;17.190;2023-06-26T12:28:19;100092.09;;;28.07;43.07
41706;BME280;27385;51.096;17.190;2023-06-26T12:31:14;100085.45;;;28.07;42.85
41706;BME280;27385;51.096;17.190;2023-06-26T12:33:45;100083.15;;;28.07;42.88
41706;BME280;27385;51.096;17.190;2023-06-26T12:36:16;100082.73;;;28.07;43.32
41706;BME280;27385;51.096;17.190;2023-06-26T12:38:48;100078.49;;;28.11;43.27
41706;BME280;27385;51.096;17.190;2023-06-26T12:41:19;100075.95;;;28.18;42.97
41706;BME280;27385;51.096;17.190;2023-06-26T12:46:53;100075.52;;;28.23;42.87
41706;BME280;27385;51.096;17.190;2023-06-26T12:49:32;100078.03;;;28.29;43.01
41706;BME280;27385;51.096;17.190;2023-06-26T12:52:06;100068.66;;;28.34;42.95
41706;BME280;27385;51.096;17.190;2023-06-26T12:54:38;100066.39;;;28.38;43.02
41706;BME280;27385;51.096;17.190;2023-06-26T12:57:10;100063.56;;;28.43;43.16
41706;BME280;27385;51.096;17.190;2023-06-26T12:59:44;100065.17;;;28.47;43.08
41706;BME280;27385;51.096;17.190;2023-06-26T13:02:15;100058.34;;;28.50;42.66
41706;BME280;27385;51.096;17.190;2023-06-26T13:04:46;100059.80;;;28.48;42.57
41706;BME280;27385;51.096;17.190;2023-06-26T13:07:18;100055.91;;;28.48;42.81
41706;BME280;27385;51.096;17.190;2023-06-26T13:09:50;100051.95;;;28.53;42.63
41706;BME280;27385;51.096;17.190;2023-06-26T13:12:21;100046.88;;;28.50;42.02
41706;BME280;27385;51.096;17.190;2023-06-26T13:14:53;100040.02;;;28.45;42.26
41706;BME280;27385;51.096;17.190;2023-06-26T13:17:24;100044.08;;;28.41;42.31
41706;BME280;27385;51.096;17.190;2023-06-26T13:19:55;100038.52;;;28.44;42.51
41706;BME280;27385;51.096;17.190;2023-06-26T13:22:26;100033.81;;;28.50;42.52
41706;BME280;27385;51.096;17.190;2023-06-26T13:24:56;100027.34;;;28.56;42.90